sensor_id;sensor_type;location;lat;lon;timestamp;temperature;humidity
57566;DHT22;63999;43.882;-0.310;2023-06-10T00:02:23;20.50;79.90
57566;DHT22;63999;43.882;-0.310;2023-06-10T00:05:00;20.50;79.70
57566;DHT22;63999;43.882;-0.310;2023-06-10T00:07:34;20.50;79.80
57566;DHT22;63999;43.882;-0.310;2023-06-10T00:10:14;20.50;79.70
57566;DHT22;63999;43.882;-0.310;2023-06-10T00:12:45;20.50;79.90
57566;DHT22;63999;43.882;-0.310;2023-06-10T00:15:27;20.50;79.80
57566;DHT22;63999;43.882;-0.310;2023-06-10T00:17:59;20.40;79.60
57566;DHT22;63999;43.882;-0.310;2023-06-10T00:20:33;20.30;79.70
57566;DHT22;63999;43.882;-0.310;2023-06-10T00:23:09;20.30;79.70
57566;DHT22;63999;43.882;-0.310;2023-06-10T00:25:46;20.30;79.70
57566;DHT22;63999;43.882;-0.310;2023-06-10T00:28:17;20.30;79.80
57566;DHT22;63999;43.882;-0.310;2023-06-10T00:30:46;20.30;79.70
57566;DHT22;63999;43.882;-0.310;2023-06-10T00:33:18;20.20;79.70
57566;DHT22;63999;43.882;-0.310;2023-06-10T00:35:58;20.10;79.90
57566;DHT22;63999;43.882;-0.310;2023-06-10T00:38:26;20.10;79.80
57566;DHT22;63999;43.882;-0.310;2023-06-10T00:41:01;20.10;79.80
57566;DHT22;63999;43.882;-0.310;2023-06-10T00:43:35;20.10;79.80
57566;DHT22;63999;43.882;-0.310;2023-06-10T00:46:10;20.10;80.00
57566;DHT22;63999;43.882;-0.310;2023-06-10T00:48:40;20.10;79.70
57566;DHT22;63999;43.882;-0.310;2023-06-10T00:51:16;20.10;79.80
57566;DHT22;63999;43.882;-0.310;2023-06-10T00:53:53;20.10;79.80
57566;DHT22;63999;43.882;-0.310;2023-06-10T00:56:29;20.00;79.80
57566;DHT22;63999;43.882;-0.310;2023-06-10T00:59:04;20.00;79.70
57566;DHT22;63999;43.882;-0.310;2023-06-10T01:01:33;20.00;79.70
57566;DHT22;63999;43.882;-0.310;2023-06-10T01:04:05;20.00;79.70
57566;DHT22;63999;43.882;-0.310;2023-06-10T01:09:27;20.00;79.70
57566;DHT22;63999;43.882;-0.310;2023-06-10T01:12:18;20.00;79.70
57566;DHT22;63999;43.882;-0.310;2023-06-10T01:14:48;20.00;79.60
57566;DHT22;63999;43.882;-0.310;2023-06-10T01:17:17;19.90;79.50
57566;DHT22;63999;43.882;-0.310;2023-06-10T01:20:06;19.90;79.60
57566;DHT22;63999;43.882;-0.310;2023-06-10T01:22:47;19.90;79.50
57566;DHT22;63999;43.882;-0.310;2023-06-10T01:25:25;19.80;79.40
57566;DHT22;63999;43.882;-0.310;2023-06-10T01:31:16;19.70;79.40
57566;DHT22;63999;43.882;-0.310;2023-06-10T01:33:54;19.70;79.30
57566;DHT22;63999;43.882;-0.310;2023-06-10T01:36:27;19.70;79.20
57566;DHT22;63999;43.882;-0.310;2023-06-10T01:39:04;19.70;79.30
57566;DHT22;63999;43.882;-0.310;2023-06-10T01:41:35;19.70;79.40
57566;DHT22;63999;43.882;-0.310;2023-06-10T01:44:07;19.70;79.30
57566;DHT22;63999;43.882;-0.310;2023-06-10T01:46:41;19.70;79.40
57566;DHT22;63999;43.882;-0.310;2023-06-10T01:49:15;19.60;79.40
57566;DHT22;63999;43.882;-0.310;2023-06-10T01:51:55;19.60;79.40
57566;DHT22;63999;43.882;-0.310;2023-06-10T01:54:26;19.60;79.40
57566;DHT22;63999;43.882;-0.310;2023-06-10T01:57:01;19.50;79.30
57566;DHT22;63999;43.882;-0.310;2023-06-10T01:59:35;19.50;79.40
57566;DHT22;63999;43.882;-0.310;2023-06-10T02:02:05;19.50;79.30
57566;DHT22;63999;43.882;-0.310;2023-06-10T02:04:39;19.50;79.30
57566;DHT22;63999;43.882;-0.310;2023-06-10T02:07:11;19.50;79.00
57566;DHT22;63999;43.882;-0.310;2023-06-10T02:09:40;19.50;79.00
57566;DHT22;63999;43.882;-0.310;2023-06-10T02:12:09;19.40;79.00
57566;DHT22;63999;43.882;-0.310;2023-06-10T02:14:39;19.30;79.10
57566;DHT22;63999;43.882;-0.310;2023-06-10T02:17:10;19.30;79.00
57566;DHT22;63999;43.882;-0.310;2023-06-10T02:19:47;19.20;78.90
57566;DHT22;63999;43.882;-0.310;2023-06-10T02:22:23;19.20;79.00
57566;DHT22;63999;43.882;-0.310;2023-06-10T02:24:55;19.20;79.20
57566;DHT22;63999;43.882;-0.310;2023-06-10T02:27:26;19.20;79.00
57566;DHT22;63999;43.882;-0.310;2023-06-10T02:29:56;19.10;79.10
57566;DHT22;63999;43.882;-0.310;2023-06-10T02:32:30;19.10;79.30
57566;DHT22;63999;43.882;-0.310;2023-06-10T02:35:08;19.10;79.20
57566;DHT22;63999;43.882;-0.310;2023-06-10T02:37:41;19.10;79.20
57566;DHT22;63999;43.882;-0.310;2023-06-10T02:40:10;19.10;79.20
57566;DHT22;63999;43.882;-0.310;2023-06-10T02:42:39;19.10;79.10
57566;DHT22;63999;43.882;-0.310;2023-06-10T02:45:13;19.10;79.20
57566;DHT22;63999;43.882;-0.310;2023-06-10T02:47:48;19.10;79.20
57566;DHT22;63999;43.882;-0.310;2023-06-10T02:50:17;19.10;79.20
57566;DHT22;63999;43.882;-0.310;2023-06-10T02:52:46;19.10;79.10
57566;DHT22;63999;43.882;-0.310;2023-06-10T02:55:17;19.10;79.00
57566;DHT22;63999;43.882;-0.310;2023-06-10T02:57:48;19.10;79.00
57566;DHT22;63999;43.882;-0.310;2023-06-10T03:00:20;19.00;79.10
57566;DHT22;63999;43.882;-0.310;2023-06-10T03:02:52;19.00;79.00
57566;DHT22;63999;43.882;-0.310;2023-06-10T03:05:25;19.00;79.00
57566;DHT22;63999;43.882;-0.310;2023-06-10T03:07:54;19.00;79.10
57566;DHT22;63999;43.882;-0.310;2023-06-10T03:10:26;18.90;79.00
57566;DHT22;63999;43.882;-0.310;2023-06-10T03:13:01;18.90;79.00
57566;DHT22;63999;43.882;-0.310;2023-06-10T03:15:36;18.90;79.00
57566;DHT22;63999;43.882;-0.310;2023-06-10T03:18:08;18.90;78.90
57566;DHT22;63999;43.882;-0.310;2023-06-10T03:20:42;18.90;78.80
57566;DHT22;63999;43.882;-0.310;2023-06-10T03:23:15;18.80;78.90
57566;DHT22;63999;43.882;-0.310;2023-06-10T03:25:50;18.80;79.00
57566;DHT22;63999;43.882;-0.310;2023-06-10T03:28:19;18.80;79.00
57566;DHT22;63999;43.882;-0.310;2023-06-10T03:30:48;18.80;78.80
57566;DHT22;63999;43.882;-0.310;2023-06-10T03:33:19;18.80;78.70
57566;DHT22;63999;43.882;-0.310;2023-06-10T03:35:56;18.70;78.70
57566;DHT22;63999;43.882;-0.310;2023-06-10T03:38:29;18.70;78.80
57566;DHT22;63999;43.882;-0.310;2023-06-10T03:41:01;18.70;78.90
57566;DHT22;63999;43.882;-0.310;2023-06-10T03:43:30;18.70;78.80
57566;DHT22;63999;43.882;-0.310;2023-06-10T03:46:04;18.70;78.70
57566;DHT22;63999;43.882;-0.310;2023-06-10T03:48:46;18.70;78.90
57566;DHT22;63999;43.882;-0.310;2023-06-10T03:51:18;18.70;78.90
57566;DHT22;63999;43.882;-0.310;2023-06-10T03:54:01;18.70;78.70
57566;DHT22;63999;43.882;-0.310;2023-06-10T03:56:31;18.60;78.70
57566;DHT22;63999;43.882;-0.310;2023-06-10T03:59:00;18.60;78.60
57566;DHT22;63999;43.882;-0.310;2023-06-10T04:01:29;18.60;78.60
57566;DHT22;63999;43.882;-0.310;2023-06-10T04:04:00;18.50;78.60
57566;DHT22;63999;43.882;-0.310;2023-06-10T04:06:35;18.50;78.70
57566;DHT22;63999;43.882;-0.310;2023-06-10T04:09:07;18.50;78.60
57566;DHT22;63999;43.882;-0.310;2023-06-10T04:11:36;18.50;78.60
57566;DHT22;63999;43.882;-0.310;2023-06-10T04:14:05;18.40;78.50
57566;DHT22;63999;43.882;-0.310;2023-06-10T04:16:33;18.40;78.50
57566;DHT22;63999;43.882;-0.310;2023-06-10T04:19:04;18.40;78.60
57566;DHT22;63999;43.882;-0.310;2023-06-10T04:21:30;18.40;78.50
57566;DHT22;63999;43.882;-0.310;2023-06-10T04:24:10;18.40;78.40
57566;DHT22;63999;43.882;-0.310;2023-06-10T04:26:42;18.40;78.40
57566;DHT22;63999;43.882;-0.310;2023-06-10T04:29:11;18.30;78.50
57566;DHT22;63999;43.882;-0.310;2023-06-10T04:31:42;18.30;78.50
57566;DHT22;63999;43.882;-0.310;2023-06-10T04:34:22;18.30;78.60
57566;DHT22;63999;43.882;-0.310;2023-06-10T04:36:48;18.30;78.50
57566;DHT22;63999;43.882;-0.310;2023-06-10T04:39:19;18.30;78.50
57566;DHT22;63999;43.882;-0.310;2023-06-10T04:41:48;18.30;78.30
57566;DHT22;63999;43.882;-0.310;2023-06-10T04:44:20;18.20;78.50
57566;DHT22;63999;43.882;-0.310;2023-06-10T04:46:52;18.20;78.50
57566;DHT22;63999;43.882;-0.310;2023-06-10T04:49:29;18.20;78.60
57566;DHT22;63999;43.882;-0.310;2023-06-10T04:51:58;18.20;78.60
57566;DHT22;63999;43.882;-0.310;2023-06-10T04:54:30;18.20;78.60
57566;DHT22;63999;43.882;-0.310;2023-06-10T04:57:01;18.20;78.70
57566;DHT22;63999;43.882;-0.310;2023-06-10T04:59:33;18.10;78.80
57566;DHT22;63999;43.882;-0.310;2023-06-10T05:02:08;18.20;79.00
57566;DHT22;63999;43.882;-0.310;2023-06-10T05:04:39;18.20;79.00
57566;DHT22;63999;43.882;-0.310;2023-06-10T05:07:11;18.20;79.10
57566;DHT22;63999;43.882;-0.310;2023-06-10T05:09:45;18.20;79.20
57566;DHT22;63999;43.882;-0.310;2023-06-10T05:12:20;18.20;79.00
57566;DHT22;63999;43.882;-0.310;2023-06-10T05:14:49;18.20;79.10
57566;DHT22;63999;43.882;-0.310;2023-06-10T05:17:31;18.20;79.20
57566;DHT22;63999;43.882;-0.310;2023-06-10T05:20:00;18.20;79.50
57566;DHT22;63999;43.882;-0.310;2023-06-10T05:22:32;18.20;79.60
57566;DHT22;63999;43.882;-0.310;2023-06-10T05:25:00;18.20;79.70
57566;DHT22;63999;43.882;-0.310;2023-06-10T05:27:29;18.20;79.80
57566;DHT22;63999;43.882;-0.310;2023-06-10T05:30:10;18.20;79.90
57566;DHT22;63999;43.882;-0.310;2023-06-10T05:32:39;18.20;80.10
57566;DHT22;63999;43.882;-0.310;2023-06-10T05:35:17;18.30;80.20
57566;DHT22;63999;43.882;-0.310;2023-06-10T05:37:49;18.30;80.20
57566;DHT22;63999;43.882;-0.310;2023-06-10T05:40:20;18.30;80.30
57566;DHT22;63999;43.882;-0.310;2023-06-10T05:42:48;18.30;80.40
57566;DHT22;63999;43.882;-0.310;2023-06-10T05:45:20;18.40;80.70
57566;DHT22;63999;43.882;-0.310;2023-06-10T05:47:57;18.30;80.70
57566;DHT22;63999;43.882;-0.310;2023-06-10T05:50:29;18.40;80.90
57566;DHT22;63999;43.882;-0.310;2023-06-10T05:53:01;18.40;80.90
57566;DHT22;63999;43.882;-0.310;2023-06-10T05:55:30;18.40;80.80
57566;DHT22;63999;43.882;-0.310;2023-06-10T05:58:11;18.50;80.70
57566;DHT22;63999;43.882;-0.310;2023-06-10T06:00:46;18.50;81.00
57566;DHT22;63999;43.882;-0.310;2023-06-10T06:03:20;18.50;81.40
57566;DHT22;63999;43.882;-0.310;2023-06-10T06:05:51;18.60;81.00
57566;DHT22;63999;43.882;-0.310;2023-06-10T06:08:25;18.60;81.00
57566;DHT22;63999;43.882;-0.310;2023-06-10T06:10:54;18.60;81.00
57566;DHT22;63999;43.882;-0.310;2023-06-10T06:13:23;18.60;81.30
57566;DHT22;63999;43.882;-0.310;2023-06-10T06:15:53;18.70;81.20
57566;DHT22;63999;43.882;-0.310;2023-06-10T06:18:24;18.70;80.90
57566;DHT22;63999;43.882;-0.310;2023-06-10T06:20:58;18.70;80.20
57566;DHT22;63999;43.882;-0.310;2023-06-10T06:23:27;18.80;80.60
57566;DHT22;63999;43.882;-0.310;2023-06-10T06:26:01;18.80;80.20
57566;DHT22;63999;43.882;-0.310;2023-06-10T06:28:33;18.80;80.50
57566;DHT22;63999;43.882;-0.310;2023-06-10T06:31:04;18.80;79.50
57566;DHT22;63999;43.882;-0.310;2023-06-10T06:33:38;18.80;79.40
57566;DHT22;63999;43.882;-0.310;2023-06-10T06:36:07;18.80;79.70
57566;DHT22;63999;43.882;-0.310;2023-06-10T06:38:36;18.90;79.70
57566;DHT22;63999;43.882;-0.310;2023-06-10T06:41:05;18.90;79.40
57566;DHT22;63999;43.882;-0.310;2023-06-10T06:43:37;18.90;79.40
57566;DHT22;63999;43.882;-0.310;2023-06-10T06:46:13;18.90;79.00
57566;DHT22;63999;43.882;-0.310;2023-06-10T06:48:50;18.90;80.00
57566;DHT22;63999;43.882;-0.310;2023-06-10T06:51:19;19.00;78.80
57566;DHT22;63999;43.882;-0.310;2023-06-10T06:53:48;19.00;79.00
57566;DHT22;63999;43.882;-0.310;2023-06-10T06:56:22;19.00;81.40
57566;DHT22;63999;43.882;-0.310;2023-06-10T06:59:03;19.10;80.80
57566;DHT22;63999;43.882;-0.310;2023-06-10T07:01:35;19.10;80.40
57566;DHT22;63999;43.882;-0.310;2023-06-10T07:04:06;19.10;79.60
57566;DHT22;63999;43.882;-0.310;2023-06-10T07:06:48;19.10;80.30
57566;DHT22;63999;43.882;-0.310;2023-06-10T07:09:22;19.20;79.50
57566;DHT22;63999;43.882;-0.310;2023-06-10T07:11:58;19.20;80.70
57566;DHT22;63999;43.882;-0.310;2023-06-10T07:14:28;19.20;79.40
57566;DHT22;63999;43.882;-0.310;2023-06-10T07:16:59;19.20;79.00
57566;DHT22;63999;43.882;-0.310;2023-06-10T07:19:28;19.20;78.50
57566;DHT22;63999;43.882;-0.310;2023-06-10T07:22:07;19.20;78.40
57566;DHT22;63999;43.882;-0.310;2023-06-10T07:24:39;19.20;79.10
57566;DHT22;63999;43.882;-0.310;2023-06-10T07:27:09;19.30;78.70
57566;DHT22;63999;43.882;-0.310;2023-06-10T07:29:43;19.30;79.10
57566;DHT22;63999;43.882;-0.310;2023-06-10T07:32:18;19.40;79.10
57566;DHT22;63999;43.882;-0.310;2023-06-10T07:34:51;19.40;79.10
57566;DHT22;63999;43.882;-0.310;2023-06-10T07:37:26;19.50;79.50
57566;DHT22;63999;43.882;-0.310;2023-06-10T07:39:57;19.50;80.10
57566;DHT22;63999;43.882;-0.310;2023-06-10T07:42:26;19.50;79.10
57566;DHT22;63999;43.882;-0.310;2023-06-10T07:44:58;19.50;79.70
57566;DHT22;63999;43.882;-0.310;2023-06-10T07:47:27;19.50;82.20
57566;DHT22;63999;43.882;-0.310;2023-06-10T07:49:56;19.70;81.80
57566;DHT22;63999;43.882;-0.310;2023-06-10T07:52:28;19.70;82.00
57566;DHT22;63999;43.882;-0.310;2023-06-10T07:55:02;19.70;81.00
57566;DHT22;63999;43.882;-0.310;2023-06-10T07:57:36;19.70;81.70
57566;DHT22;63999;43.882;-0.310;2023-06-10T08:00:07;19.70;82.30
57566;DHT22;63999;43.882;-0.310;2023-06-10T08:02:36;19.90;81.60
57566;DHT22;63999;43.882;-0.310;2023-06-10T08:05:08;19.90;81.60
57566;DHT22;63999;43.882;-0.310;2023-06-10T08:07:42;19.80;80.70
57566;DHT22;63999;43.882;-0.310;2023-06-10T08:10:17;19.90;83.30
57566;DHT22;63999;43.882;-0.310;2023-06-10T08:12:51;19.90;80.30
57566;DHT22;63999;43.882;-0.310;2023-06-10T08:15:33;19.70;80.40
57566;DHT22;63999;43.882;-0.310;2023-06-10T08:18:04;19.90;81.40
57566;DHT22;63999;43.882;-0.310;2023-06-10T08:20:35;19.90;80.60
57566;DHT22;63999;43.882;-0.310;2023-06-10T08:23:10;19.90;80.70
57566;DHT22;63999;43.882;-0.310;2023-06-10T08:25:39;20.10;81.90
57566;DHT22;63999;43.882;-0.310;2023-06-10T08:28:10;20.50;84.50
57566;DHT22;63999;43.882;-0.310;2023-06-10T08:30:41;20.50;80.60
57566;DHT22;63999;43.882;-0.310;2023-06-10T08:33:10;20.50;80.50
57566;DHT22;63999;43.882;-0.310;2023-06-10T08:35:52;20.40;83.20
57566;DHT22;63999;43.882;-0.310;2023-06-10T08:38:21;20.60;80.90
57566;DHT22;63999;43.882;-0.310;2023-06-10T08:40:56;20.60;81.10
57566;DHT22;63999;43.882;-0.310;2023-06-10T08:43:42;20.50;80.60
57566;DHT22;63999;43.882;-0.310;2023-06-10T08:46:15;20.60;81.50
57566;DHT22;63999;43.882;-0.310;2023-06-10T08:48:48;20.50;80.40
57566;DHT22;63999;43.882;-0.310;2023-06-10T08:51:26;20.40;80.10
57566;DHT22;63999;43.882;-0.310;2023-06-10T08:54:03;20.50;81.00
57566;DHT22;63999;43.882;-0.310;2023-06-10T08:56:36;20.50;80.80
57566;DHT22;63999;43.882;-0.310;2023-06-10T08:59:21;20.50;80.90
57566;DHT22;63999;43.882;-0.310;2023-06-10T09:01:55;20.60;82.00
57566;DHT22;63999;43.882;-0.310;2023-06-10T09:04:24;20.80;83.50
57566;DHT22;63999;43.882;-0.310;2023-06-10T09:07:02;20.80;81.70
57566;DHT22;63999;43.882;-0.310;2023-06-10T09:09:38;20.80;83.70
57566;DHT22;63999;43.882;-0.310;2023-06-10T09:12:10;20.70;81.10
57566;DHT22;63999;43.882;-0.310;2023-06-10T09:14:52;20.70;82.30
57566;DHT22;63999;43.882;-0.310;2023-06-10T09:17:29;20.90;81.70
57566;DHT22;63999;43.882;-0.310;2023-06-10T09:20:01;20.90;81.80
57566;DHT22;63999;43.882;-0.310;2023-06-10T09:22:34;20.90;81.70
57566;DHT22;63999;43.882;-0.310;2023-06-10T09:27:49;20.80;81.50
57566;DHT22;63999;43.882;-0.310;2023-06-10T09:30:48;20.90;83.30
57566;DHT22;63999;43.882;-0.310;2023-06-10T09:33:27;20.80;82.50
57566;DHT22;63999;43.882;-0.310;2023-06-10T09:36:02;20.80;82.00
57566;DHT22;63999;43.882;-0.310;2023-06-10T09:38:36;20.80;83.20
57566;DHT22;63999;43.882;-0.310;2023-06-10T09:41:14;20.90;83.70
57566;DHT22;63999;43.882;-0.310;2023-06-10T09:43:45;20.90;81.90
57566;DHT22;63999;43.882;-0.310;2023-06-10T09:46:35;20.90;83.70
57566;DHT22;63999;43.882;-0.310;2023-06-10T09:49:12;21.20;84.20
57566;DHT22;63999;43.882;-0.310;2023-06-10T09:51:51;21.20;82.60
57566;DHT22;63999;43.882;-0.310;2023-06-10T09:54:25;21.30;83.40
57566;DHT22;63999;43.882;-0.310;2023-06-10T09:57:08;21.50;83.70
57566;DHT22;63999;43.882;-0.310;2023-06-10T09:59:42;21.30;82.00
57566;DHT22;63999;43.882;-0.310;2023-06-10T10:02:17;21.10;81.60
57566;DHT22;63999;43.882;-0.310;2023-06-10T10:04:49;21.20;83.20
57566;DHT22;63999;43.882;-0.310;2023-06-10T10:07:25;21.10;82.50
57566;DHT22;63999;43.882;-0.310;2023-06-10T10:10:11;21.10;81.80
57566;DHT22;63999;43.882;-0.310;2023-06-10T10:12:56;20.90;82.10
57566;DHT22;63999;43.882;-0.310;2023-06-10T10:15:29;21.00;83.40
57566;DHT22;63999;43.882;-0.310;2023-06-10T10:18:09;21.00;82.00
57566;DHT22;63999;43.882;-0.310;2023-06-10T10:20:53;20.90;82.40
57566;DHT22;63999;43.882;-0.310;2023-06-10T10:23:34;20.90;83.70
57566;DHT22;63999;43.882;-0.310;2023-06-10T10:26:12;21.40;84.80
57566;DHT22;63999;43.882;-0.310;2023-06-10T10:31:39;21.50;82.10
57566;DHT22;63999;43.882;-0.310;2023-06-10T10:34:15;21.40;82.20
57566;DHT22;63999;43.882;-0.310;2023-06-10T10:36:47;21.50;84.30
57566;DHT22;63999;43.882;-0.310;2023-06-10T10:39:20;21.40;83.20
57566;DHT22;63999;43.882;-0.310;2023-06-10T10:41:58;21.40;82.40
57566;DHT22;63999;43.882;-0.310;2023-06-10T10:44:27;21.50;83.40
57566;DHT22;63999;43.882;-0.310;2023-06-10T10:47:08;21.40;83.00
57566;DHT22;63999;43.882;-0.310;2023-06-10T10:49:41;21.40;84.40
57566;DHT22;63999;43.882;-0.310;2023-06-10T10:52:25;21.50;82.40
57566;DHT22;63999;43.882;-0.310;2023-06-10T10:54:57;21.40;82.40
57566;DHT22;63999;43.882;-0.310;2023-06-10T10:57:29;21.50;83.00
57566;DHT22;63999;43.882;-0.310;2023-06-10T11:00:01;21.40;82.40
57566;DHT22;63999;43.882;-0.310;2023-06-10T11:02:44;21.30;84.00
57566;DHT22;63999;43.882;-0.310;2023-06-10T11:05:39;21.40;83.50
57566;DHT22;63999;43.882;-0.310;2023-06-10T11:08:11;21.70;85.00
57566;DHT22;63999;43.882;-0.310;2023-06-10T11:11:02;21.80;83.50
57566;DHT22;63999;43.882;-0.310;2023-06-10T11:13:38;21.90;82.20
57566;DHT22;63999;43.882;-0.310;2023-06-10T11:16:22;21.70;82.30
57566;DHT22;63999;43.882;-0.310;2023-06-10T11:19:01;21.70;83.30
57566;DHT22;63999;43.882;-0.310;2023-06-10T11:21:58;21.80;84.00
57566;DHT22;63999;43.882;-0.310;2023-06-10T11:24:32;22.00;83.60
57566;DHT22;63999;43.882;-0.310;2023-06-10T11:27:21;22.00;83.30
57566;DHT22;63999;43.882;-0.310;2023-06-10T11:32:42;21.90;83.30
57566;DHT22;63999;43.882;-0.310;2023-06-10T11:35:19;21.90;82.80
57566;DHT22;63999;43.882;-0.310;2023-06-10T11:37:57;22.00;84.50
57566;DHT22;63999;43.882;-0.310;2023-06-10T11:43:32;22.20;83.00
57566;DHT22;63999;43.882;-0.310;2023-06-10T11:46:03;22.10;83.20
57566;DHT22;63999;43.882;-0.310;2023-06-10T11:48:49;22.30;82.50
57566;DHT22;63999;43.882;-0.310;2023-06-10T11:51:21;22.40;81.50
57566;DHT22;63999;43.882;-0.310;2023-06-10T11:53:56;22.40;83.20
57566;DHT22;63999;43.882;-0.310;2023-06-10T11:56:28;22.30;81.80
57566;DHT22;63999;43.882;-0.310;2023-06-10T11:59:06;22.50;83.30
57566;DHT22;63999;43.882;-0.310;2023-06-10T12:01:42;22.50;81.90
57566;DHT22;63999;43.882;-0.310;2023-06-10T12:04:17;22.10;83.70
57566;DHT22;63999;43.882;-0.310;2023-06-10T12:07:01;22.00;82.80
57566;DHT22;63999;43.882;-0.310;2023-06-10T12:09:33;21.90;83.90
57566;DHT22;63999;43.882;-0.310;2023-06-10T12:12:05;22.00;83.40
57566;DHT22;63999;43.882;-0.310;2023-06-10T12:14:51;22.00;82.70
57566;DHT22;63999;43.882;-0.310;2023-06-10T12:17:42;21.90;83.20
57566;DHT22;63999;43.882;-0.310;2023-06-10T12:20:31;21.90;83.00
57566;DHT22;63999;43.882;-0.310;2023-06-10T12:23:19;21.80;83.20
57566;DHT22;63999;43.882;-0.310;2023-06-10T12:25:57;21.90;84.50
57566;DHT22;63999;43.882;-0.310;2023-06-10T12:28:36;22.20;83.10
57566;DHT22;63999;43.882;-0.310;2023-06-10T12:31:13;22.70;81.70
57566;DHT22;63999;43.882;-0.310;2023-06-10T12:33:52;22.80;81.30
57566;DHT22;63999;43.882;-0.310;2023-06-10T12:36:50;22.50;81.20
57566;DHT22;63999;43.882;-0.310;2023-06-10T12:39:27;22.50;82.50
57566;DHT22;63999;43.882;-0.310;2023-06-10T12:41:59;22.30;83.30
57566;DHT22;63999;43.882;-0.310;2023-06-10T12:44:39;22.30;83.50
57566;DHT22;63999;43.882;-0.310;2023-06-10T12:47:14;22.50;82.20
57566;DHT22;63999;43.882;-0.310;2023-06-10T12:49:50;22.50;83.40
57566;DHT22;63999;43.882;-0.310;2023-06-10T12:52:27;22.70;81.80
57566;DHT22;63999;43.882;-0.310;2023-06-10T12:55:04;22.70;82.70
57566;DHT22;63999;43.882;-0.310;2023-06-10T12:57:36;22.50;82.50
57566;DHT22;63999;43.882;-0.310;2023-06-10T13:00:17;22.50;82.50
57566;DHT22;63999;43.882;-0.310;2023-06-10T13:02:56;22.70;84.00
57566;DHT22;63999;43.882;-0.310;2023-06-10T13:05:35;23.00;82.00
57566;DHT22;63999;43.882;-0.310;2023-06-10T13:08:18;22.90;80.90
57566;DHT22;63999;43.882;-0.310;2023-06-10T13:10:53;22.60;81.90
57566;DHT22;63999;43.882;-0.310;2023-06-10T13:13:23;22.50;82.40
57566;DHT22;63999;43.882;-0.310;2023-06-10T13:16:00;22.30;82.70
57566;DHT22;63999;43.882;-0.310;2023-06-10T13:18:50;22.30;83.00
57566;DHT22;63999;43.882;-0.310;2023-06-10T13:21:22;22.50;82.30
57566;DHT22;63999;43.882;-0.310;2023-06-10T13:24:04;22.50;82.80
57566;DHT22;63999;43.882;-0.310;2023-06-10T13:26:46;22.50;83.40
57566;DHT22;63999;43.882;-0.310;2023-06-10T13:29:17;22.50;84.70
57566;DHT22;63999;43.882;-0.310;2023-06-10T13:31:49;22.80;82.60
57566;DHT22;63999;43.882;-0.310;2023-06-10T13:34:30;22.90;82.50
57566;DHT22;63999;43.882;-0.310;2023-06-10T13:37:10;23.10;82.40
57566;DHT22;63999;43.882;-0.310;2023-06-10T13:39:49;23.00;81.40
57566;DHT22;63999;43.882;-0.310;2023-06-10T13:42:27;22.80;83.00
57566;DHT22;63999;43.882;-0.310;2023-06-10T13:45:11;22.90;81.90
57566;DHT22;63999;43.882;-0.310;2023-06-10T13:47:43;22.90;82.30
57566;DHT22;63999;43.882;-0.310;2023-06-10T13:50:12;22.80;82.70
57566;DHT22;63999;43.882;-0.310;2023-06-10T13:52:44;22.70;82.40
57566;DHT22;63999;43.882;-0.310;2023-06-10T13:55:15;22.60;82.80
57566;DHT22;63999;43.882;-0.310;2023-06-10T13:57:52;22.60;83.20
57566;DHT22;63999;43.882;-0.310;2023-06-10T14:00:29;22.70;82.60
57566;DHT22;63999;43.882;-0.310;2023-06-10T14:03:04;22.60;82.90
57566;DHT22;63999;43.882;-0.310;2023-06-10T14:05:46;22.60;82.90
57566;DHT22;63999;43.882;-0.310;2023-06-10T14:08:18;22.60;83.20
57566;DHT22;63999;43.882;-0.310;2023-06-10T14:10:47;23.00;82.30
57566;DHT22;63999;43.882;-0.310;2023-06-10T14:13:30;22.90;82.10
57566;DHT22;63999;43.882;-0.310;2023-06-10T14:16:04;22.80;82.90
57566;DHT22;63999;43.882;-0.310;2023-06-10T14:18:36;23.00;83.40
57566;DHT22;63999;43.882;-0.310;2023-06-10T14:21:13;23.10;83.40
57566;DHT22;63999;43.882;-0.310;2023-06-10T14:23:47;23.30;81.30
57566;DHT22;63999;43.882;-0.310;2023-06-10T14:26:26;23.40;82.30
57566;DHT22;63999;43.882;-0.310;2023-06-10T14:28:59;23.70;80.60
57566;DHT22;63999;43.882;-0.310;2023-06-10T14:31:34;23.60;80.60
57566;DHT22;63999;43.882;-0.310;2023-06-10T14:34:06;23.50;80.30
57566;DHT22;63999;43.882;-0.310;2023-06-10T14:36:38;23.20;82.50
57566;DHT22;63999;43.882;-0.310;2023-06-10T14:39:08;23.10;81.80
57566;DHT22;63999;43.882;-0.310;2023-06-10T14:41:40;23.10;82.50
57566;DHT22;63999;43.882;-0.310;2023-06-10T14:44:12;23.30;82.00
57566;DHT22;63999;43.882;-0.310;2023-06-10T14:46:43;23.10;81.90
57566;DHT22;63999;43.882;-0.310;2023-06-10T14:49:15;23.10;82.30
57566;DHT22;63999;43.882;-0.310;2023-06-10T14:51:46;23.00;82.40
57566;DHT22;63999;43.882;-0.310;2023-06-10T14:54:20;23.00;82.60
57566;DHT22;63999;43.882;-0.310;2023-06-10T14:59:37;23.40;81.80
57566;DHT22;63999;43.882;-0.310;2023-06-10T15:02:09;23.20;82.00
57566;DHT22;63999;43.882;-0.310;2023-06-10T15:04:44;23.30;82.10
57566;DHT22;63999;43.882;-0.310;2023-06-10T15:07:13;23.30;82.60
57566;DHT22;63999;43.882;-0.310;2023-06-10T15:09:50;23.20;82.20
57566;DHT22;63999;43.882;-0.310;2023-06-10T15:12:42;23.20;82.30
57566;DHT22;63999;43.882;-0.310;2023-06-10T15:15:14;23.10;82.80
57566;DHT22;63999;43.882;-0.310;2023-06-10T15:17:46;23.10;82.90
57566;DHT22;63999;43.882;-0.310;2023-06-10T15:20:20;23.00;83.50
57566;DHT22;63999;43.882;-0.310;2023-06-10T15:22:51;23.10;83.70
57566;DHT22;63999;43.882;-0.310;2023-06-10T15:25:33;23.10;83.00
57566;DHT22;63999;43.882;-0.310;2023-06-10T15:28:05;23.50;81.80
57566;DHT22;63999;43.882;-0.310;2023-06-10T15:30:39;23.70;81.00
57566;DHT22;63999;43.882;-0.310;2023-06-10T15:33:10;23.80;81.20
57566;DHT22;63999;43.882;-0.310;2023-06-10T15:35:47;23.80;81.00
57566;DHT22;63999;43.882;-0.310;2023-06-10T15:38:18;23.60;81.60
57566;DHT22;63999;43.882;-0.310;2023-06-10T15:40:52;23.50;82.90
57566;DHT22;63999;43.882;-0.310;2023-06-10T15:43:24;23.60;82.40
57566;DHT22;63999;43.882;-0.310;2023-06-10T15:46:01;23.60;82.50
57566;DHT22;63999;43.882;-0.310;2023-06-10T15:48:27;23.90;81.60
57566;DHT22;63999;43.882;-0.310;2023-06-10T15:50:57;23.70;81.80
57566;DHT22;63999;43.882;-0.310;2023-06-10T15:53:28;23.60;82.50
57566;DHT22;63999;43.882;-0.310;2023-06-10T15:56:00;23.60;82.20
57566;DHT22;63999;43.882;-0.310;2023-06-10T15:58:42;23.60;82.80
57566;DHT22;63999;43.882;-0.310;2023-06-10T16:01:18;23.60;83.60
57566;DHT22;63999;43.882;-0.310;2023-06-10T16:04:00;23.80;82.30
57566;DHT22;63999;43.882;-0.310;2023-06-10T16:06:34;24.00;81.40
57566;DHT22;63999;43.882;-0.310;2023-06-10T16:09:11;24.10;80.70
57566;DHT22;63999;43.882;-0.310;2023-06-10T16:11:45;24.00;81.50
57566;DHT22;63999;43.882;-0.310;2023-06-10T16:14:26;23.90;82.40
57566;DHT22;63999;43.882;-0.310;2023-06-10T16:16:55;24.00;81.20
57566;DHT22;63999;43.882;-0.310;2023-06-10T16:19:24;24.00;81.20
57566;DHT22;63999;43.882;-0.310;2023-06-10T16:24:37;24.00;81.60